Time;durP1;ratioP1;P1;durP2;ratioP2;P2;SDS_P1;SDS_P2;PMS_P1;PMS_P2;Temp;Humidity;BMP_temperature;BMP_pressure;BME280_temperature;BME280_humidity;BME280_pressure;Samples;Min_cycle;Max_cycle;Signal;HPM_P1;HPM_P2
2023/07/16 00:00:55;;;;;;;24.33;4.00;;;;;;;13.54;100.00;99347.69;5112001;28;20384;-90
2023/07/16 00:03:21;;;;;;;18.30;4.20;;;;;;;13.61;100.00;99359.16;5111882;28;20439;-90
2023/07/16 00:05:50;;;;;;;14.95;3.97;;;;;;;13.56;100.00;99354.38;5111997;28;20108;-89
2023/07/16 00:08:15;;;;;;;21.60;4.25;;;;;;;13.42;100.00;99349.56;5111945;28;20409;-89
2023/07/16 00:10:41;;;;;;;17.75;4.43;;;;;;;13.39;100.00;99355.84;5111885;28;20042;-90
2023/07/16 00:13:06;;;;;;;27.38;4.25;;;;;;;13.41;100.00;99358.28;5111950;28;20099;-90
2023/07/16 00:15:32;;;;;;;26.58;4.75;;;;;;;13.44;100.00;99360.63;5110722;28;20046;-90
2023/07/16 00:17:57;;;;;;;31.40;4.75;;;;;;;13.41;100.00;99366.06;5110944;28;20030;-90
2023/07/16 00:20:25;;;;;;;27.00;4.40;;;;;;;13.37;100.00;99362.13;5111958;28;20024;-90
2023/07/16 00:22:51;;;;;;;31.98;4.82;;;;;;;13.35;100.00;99356.25;5110659;28;20023;-90
2023/07/16 00:25:17;;;;;;;27.25;5.10;;;;;;;13.42;100.00;99365.94;5111785;28;20541;-90
2023/07/16 00:27:43;;;;;;;25.55;5.30;;;;;;;13.48;100.00;99365.41;5112036;28;20032;-90
2023/07/16 00:30:09;;;;;;;24.48;4.13;;;;;;;13.34;100.00;99375.31;5111846;28;20212;-90
2023/07/16 00:32:34;;;;;;;25.30;4.22;;;;;;;13.28;100.00;99380.06;5111479;28;20107;-90
2023/07/16 00:35:01;;;;;;;24.83;3.97;;;;;;;13.26;100.00;99369.00;5113870;28;20024;-90
2023/07/16 00:37:27;;;;;;;28.85;5.18;;;;;;;13.18;100.00;99374.00;5114392;28;20496;-90
2023/07/16 00:39:52;;;;;;;19.30;4.40;;;;;;;13.18;100.00;99378.38;5115552;28;20032;-90
2023/07/16 00:42:18;;;;;;;17.90;4.13;;;;;;;13.13;100.00;99381.34;5115530;28;20023;-90
2023/07/16 00:44:43;;;;;;;25.92;4.70;;;;;;;13.07;100.00;99381.91;5115058;28;20057;-91
2023/07/16 00:47:09;;;;;;;27.65;5.30;;;;;;;13.05;100.00;99383.78;5114193;28;20409;-90
2023/07/16 00:49:35;;;;;;;26.92;4.60;;;;;;;13.01;100.00;99390.97;5115235;28;20081;-90
2023/07/16 00:52:01;;;;;;;28.88;5.55;;;;;;;12.93;100.00;99395.19;5115388;28;20495;-90
2023/07/16 00:54:29;;;;;;;28.30;5.68;;;;;;;12.83;100.00;99390.78;5115168;28;20104;-90
2023/07/16 00:56:55;;;;;;;32.72;5.95;;;;;;;12.87;100.00;99393.91;5115342;28;20038;-91
2023/07/16 00:59:20;;;;;;;29.92;5.05;;;;;;;12.83;100.00;99401.13;5115164;28;20079;-90
2023/07/16 01:01:46;;;;;;;28.05;4.93;;;;;;;12.89;100.00;99406.75;5114962;28;20503;-90
2023/07/16 01:04:11;;;;;;;23.70;4.60;;;;;;;12.92;100.00;99403.88;5114853;28;20027;-90
2023/07/16 01:06:40;;;;;;;28.35;5.38;;;;;;;12.94;100.00;99400.22;5115119;28;20051;-90
2023/07/16 01:09:17;;;;;;;27.42;5.68;;;;;;;12.82;100.00;99402.06;5114857;28;20110;-90
2023/07/16 01:11:44;;;;;;;28.88;5.35;;;;;;;12.82;100.00;99409.00;5114952;28;20283;-90
2023/07/16 01:14:10;;;;;;;31.27;5.75;;;;;;;12.83;100.00;99410.66;5114602;28;20047;-90
2023/07/16 01:16:35;;;;;;;32.20;5.47;;;;;;;12.74;100.00;99407.06;5114691;28;20511;-90
2023/07/16 01:19:00;;;;;;;26.38;5.80;;;;;;;12.77;100.00;99406.81;5114894;28;20107;-90
2023/07/16 01:21:42;;;;;;;34.30;5.45;;;;;;;12.75;100.00;99411.31;5114660;28;20024;-89
2023/07/16 01:24:35;;;;;;;31.90;5.43;;;;;;;12.77;100.00;99417.16;5114534;28;20144;-90
2023/07/16 01:27:19;;;;;;;27.35;5.03;;;;;;;12.77;100.00;99427.53;5114691;28;20031;-90
2023/07/16 01:29:50;;;;;;;30.02;5.22;;;;;;;12.81;100.00;99415.97;5114762;28;20028;-90
2023/07/16 01:32:16;;;;;;;21.55;4.45;;;;;;;12.91;100.00;99418.63;5114480;28;20027;-90
2023/07/16 01:34:43;;;;;;;21.27;4.85;;;;;;;12.96;100.00;99420.81;5114786;28;20106;-90
2023/07/16 01:37:09;;;;;;;25.00;5.75;;;;;;;12.84;100.00;99417.47;5114404;28;20020;-90
2023/07/16 01:39:35;;;;;;;26.48;4.55;;;;;;;12.75;100.00;99420.81;5114194;28;20016;-90
2023/07/16 01:42:00;;;;;;;31.30;5.25;;;;;;;12.72;100.00;99421.09;5112918;28;20104;-90
2023/07/16 01:44:26;;;;;;;26.92;4.32;;;;;;;12.75;100.00;99428.59;5113792;28;20067;-90
2023/07/16 01:47:24;;;;;;;30.48;7.28;;;;;;;12.76;100.00;99425.88;5113609;28;20027;-90
2023/07/16 01:49:50;;;;;;;26.30;4.30;;;;;;;12.68;100.00;99428.31;5099846;28;20077;-89
2023/07/16 01:52:15;;;;;;;27.25;4.50;;;;;;;12.72;100.00;99423.69;5114523;28;20431;-89
2023/07/16 01:54:40;;;;;;;31.83;6.00;;;;;;;12.75;100.00;99421.66;5113820;28;20020;-90
2023/07/16 01:57:06;;;;;;;28.75;4.97;;;;;;;12.74;100.00;99432.16;5112596;28;20020;-89
2023/07/16 01:59:31;;;;;;;19.48;4.25;;;;;;;12.72;100.00;99437.44;5114048;28;20027;-90
2023/07/16 02:01:57;;;;;;;28.10;4.40;;;;;;;12.79;100.00;99440.34;5113656;28;20027;-90
2023/07/16 02:04:22;;;;;;;24.27;4.57;;;;;;;12.72;100.00;99423.69;5112248;28;20465;-90
2023/07/16 02:06:48;;;;;;;27.80;4.50;;;;;;;12.64;100.00;99437.25;5113689;28;20458;-90
2023/07/16 02:09:13;;;;;;;20.38;4.25;;;;;;;12.60;100.00;99441.03;5113620;28;20125;-89
2023/07/16 02:11:39;;;;;;;28.73;5.47;;;;;;;12.71;100.00;99438.41;5113563;27;20153;-90
2023/07/16 02:14:04;;;;;;;33.53;5.43;;;;;;;12.73;100.00;99453.78;5113625;28;20115;-90
2023/07/16 02:16:30;;;;;;;27.13;4.53;;;;;;;12.73;100.00;99440.84;5113795;28;20036;-90
2023/07/16 02:18:55;;;;;;;20.42;4.22;;;;;;;12.68;100.00;99461.97;5113544;28;20038;-90
2023/07/16 02:21:20;;;;;;;37.10;6.22;;;;;;;12.55;100.00;99459.53;5113308;28;20019;-89
2023/07/16 02:23:46;;;;;;;30.23;5.18;;;;;;;12.53;100.00;99452.84;5113308;28;20032;-90
2023/07/16 02:26:11;;;;;;;22.65;4.50;;;;;;;12.47;100.00;99461.09;5113436;28;20606;-90
2023/07/16 02:28:36;;;;;;;22.40;4.93;;;;;;;12.55;100.00;99458.72;5113530;28;20507;-90
2023/07/16 02:31:02;;;;;;;24.17;4.90;;;;;;;12.53;100.00;99450.25;5113589;28;20532;-90
2023/07/16 02:33:28;;;;;;;25.30;4.43;;;;;;;12.45;100.00;99468.16;5113220;28;20035;-90
2023/07/16 02:35:53;;;;;;;28.50;5.13;;;;;;;12.30;100.00;99463.28;5113296;28;20377;-90
2023/07/16 02:38:19;;;;;;;22.02;4.72;;;;;;;12.42;100.00;99464.06;5113154;28;20030;-90
2023/07/16 02:40:45;;;;;;;24.15;4.53;;;;;;;12.34;100.00;99467.28;5113237;28;20106;-90
2023/07/16 02:43:10;;;;;;;32.88;5.35;;;;;;;12.28;100.00;99472.09;5111725;28;20075;-90
2023/07/16 02:45:36;;;;;;;23.75;3.47;;;;;;;12.29;100.00;99466.81;5113333;28;20059;-89
2023/07/16 02:48:02;;;;;;;28.85;3.92;;;;;;;12.16;100.00;99463.56;5113035;28;20476;-90
2023/07/16 02:50:27;;;;;;;19.98;5.72;;;;;;;12.21;100.00;99476.94;5113165;28;20035;-89
2023/07/16 02:52:52;;;;;;;25.40;4.50;;;;;;;12.15;100.00;99477.44;5112943;28;20099;-89
2023/07/16 02:55:18;;;;;;;28.83;4.68;;;;;;;12.22;100.00;99473.44;5113003;28;20024;-90
2023/07/16 02:57:43;;;;;;;31.67;5.47;;;;;;;12.10;100.00;99487.34;5111859;28;20043;-90
2023/07/16 03:00:09;;;;;;;26.15;3.75;;;;;;;12.22;100.00;99491.53;5112843;28;20488;-90
2023/07/16 03:02:34;;;;;;;19.55;3.97;;;;;;;12.21;100.00;99482.13;5112825;28;20031;-90
2023/07/16 03:05:00;;;;;;;21.38;3.95;;;;;;;12.18;100.00;99487.53;5112717;28;20081;-90
2023/07/16 03:07:25;;;;;;;24.42;4.10;;;;;;;12.22;100.00;99494.13;5112883;28;20031;-90
2023/07/16 03:09:50;;;;;;;21.10;4.07;;;;;;;12.15;100.00;99488.63;5112717;28;20016;-89
2023/07/16 03:12:16;;;;;;;25.92;3.67;;;;;;;12.12;100.00;99485.44;5111282;28;20499;-90
2023/07/16 03:14:41;;;;;;;25.17;4.32;;;;;;;12.25;100.00;99493.88;5112566;28;20061;-89
2023/07/16 03:17:06;;;;;;;21.38;4.18;;;;;;;12.21;100.00;99487.28;5112731;28;20026;-89
2023/07/16 03:19:32;;;;;;;23.63;4.13;;;;;;;12.16;100.00;99485.06;5112529;28;20027;-90
2023/07/16 03:21:57;;;;;;;20.92;3.80;;;;;;;12.21;100.00;99497.66;5112432;28;20020;-90
2023/07/16 03:24:23;;;;;;;21.42;3.75;;;;;;;12.15;100.00;99504.13;5112343;28;20420;-90
2023/07/16 03:26:48;;;;;;;21.77;4.20;;;;;;;12.14;100.00;99501.66;5112784;28;20035;-90
2023/07/16 03:29:13;;;;;;;18.17;4.32;;;;;;;12.32;100.00;99513.16;5112346;28;20495;-90
2023/07/16 03:31:39;;;;;;;24.05;3.97;;;;;;;12.12;100.00;99519.06;5112509;28;20477;-90
2023/07/16 03:34:04;;;;;;;19.73;5.00;;;;;;;12.06;100.00;99519.56;5112064;28;20016;-89
2023/07/16 03:36:30;;;;;;;19.15;4.03;;;;;;;11.91;100.00;99530.16;5112054;28;20492;-90
2023/07/16 03:38:55;;;;;;;20.25;2.90;;;;;;;11.89;100.00;99524.25;5112201;28;20484;-90
2023/07/16 03:41:20;;;;;;;19.00;4.15;;;;;;;11.90;100.00;99530.25;5112189;28;20020;-90
2023/07/16 03:43:46;;;;;;;25.13;4.03;;;;;;;11.86;100.00;99529.66;5112096;28;20066;-90
2023/07/16 03:46:11;;;;;;;20.83;4.43;;;;;;;11.96;100.00;99527.22;5112177;28;20093;-90
2023/07/16 03:48:36;;;;;;;22.88;3.55;;;;;;;11.96;100.00;99540.13;5110664;28;20020;-90
2023/07/16 03:51:02;;;;;;;23.63;3.53;;;;;;;11.98;100.00;99539.06;5112106;28;20031;-90
2023/07/16 03:53:27;;;;;;;19.98;3.50;;;;;;;11.87;100.00;99536.50;5112073;28;20099;-90
2023/07/16 03:55:53;;;;;;;20.30;3.63;;;;;;;11.92;100.00;99534.38;5112120;28;20422;-89
2023/07/16 03:58:18;;;;;;;19.67;3.05;;;;;;;11.85;100.00;99533.19;5112109;28;20477;-90
2023/07/16 04:00:44;;;;;;;19.02;3.63;;;;;;;11.86;100.00;99549.53;5112002;28;20554;-90
2023/07/16 04:03:09;;;;;;;23.73;3.53;;;;;;;11.87;100.00;99538.25;5111862;28;20652;-90
2023/07/16 04:05:34;;;;;;;19.38;3.78;;;;;;;11.89;100.00;99544.94;5112002;28;20020;-89
2023/07/16 04:08:00;;;;;;;18.25;3.10;;;;;;;11.88;100.00;99542.50;5112429;28;20034;-90
2023/07/16 04:10:25;;;;;;;19.30;3.85;;;;;;;11.86;100.00;99540.00;5115922;28;20499;-89
2023/07/16 04:12:50;;;;;;;24.35;3.55;;;;;;;11.96;100.00;99543.53;5115770;28;20047;-90
2023/07/16 04:15:16;;;;;;;18.95;2.88;;;;;;;11.90;100.00;99538.84;5115990;28;20028;-92
2023/07/16 04:17:41;;;;;;;21.52;3.40;;;;;;;11.96;100.00;99551.28;5116497;28;20047;-91
2023/07/16 04:20:07;;;;;;;22.85;3.95;;;;;;;11.99;100.00;99550.22;5115807;28;20029;-91
2023/07/16 04:22:36;;;;;;;26.67;3.35;;;;;;;11.97;100.00;99557.28;5114528;28;20097;-91
2023/07/16 04:25:02;;;;;;;22.70;4.28;;;;;;;11.89;100.00;99560.47;5115638;28;20104;-90
2023/07/16 04:27:27;;;;;;;22.92;4.22;;;;;;;11.91;100.00;99553.41;5115642;28;20106;-90
2023/07/16 04:29:52;;;;;;;19.10;3.95;;;;;;;11.94;100.00;99558.34;5115745;28;20034;-91
2023/07/16 04:32:18;;;;;;;22.02;3.55;;;;;;;11.99;100.00;99565.75;5115624;28;20023;-91
2023/07/16 04:34:43;;;;;;;18.73;3.40;;;;;;;11.99;100.00;99566.56;5115569;28;20032;-91
2023/07/16 04:37:08;;;;;;;21.00;4.22;;;;;;;11.99;100.00;99571.75;5115634;28;20023;-89
2023/07/16 04:39:34;;;;;;;12.57;2.63;;;;;;;12.15;100.00;99570.56;5115362;28;20019;-89
2023/07/16 04:41:59;;;;;;;20.35;3.80;;;;;;;12.28;100.00;99576.41;5114135;28;20072;-89
2023/07/16 04:44:24;;;;;;;14.07;2.42;;;;;;;12.12;100.00;99581.13;5115235;28;20035;-91
2023/07/16 04:46:50;;;;;;;13.63;2.70;;;;;;;12.13;100.00;99569.88;5115268;28;20495;-91
2023/07/16 04:49:15;;;;;;;21.38;3.58;;;;;;;12.15;100.00;99586.91;5113888;28;20020;-91
2023/07/16 04:51:40;;;;;;;27.33;4.55;;;;;;;12.18;100.00;99580.66;5113895;28;20064;-91
2023/07/16 04:54:06;;;;;;;20.70;3.40;;;;;;;12.03;100.00;99589.63;5113771;28;20472;-89
2023/07/16 04:56:31;;;;;;;19.67;3.28;;;;;;;12.18;100.00;99593.59;5115148;28;20372;-89
2023/07/16 04:58:57;;;;;;;20.02;3.85;;;;;;;12.23;100.00;99590.66;5113709;28;20023;-91
2023/07/16 05:01:22;;;;;;;20.52;3.65;;;;;;;12.25;100.00;99591.38;5114880;28;20469;-88
2023/07/16 05:03:47;;;;;;;16.45;3.67;;;;;;;12.23;100.00;99609.59;5113444;28;20024;-89
2023/07/16 05:06:13;;;;;;;15.48;2.80;;;;;;;12.36;100.00;99607.72;5115144;28;20073;-89
2023/07/16 05:08:38;;;;;;;15.60;3.28;;;;;;;12.22;100.00;99623.47;5114988;28;20016;-89
2023/07/16 05:11:03;;;;;;;17.00;2.53;;;;;;;12.17;100.00;99612.66;5114870;28;20538;-89
2023/07/16 05:13:29;;;;;;;28.50;3.67;;;;;;;12.19;100.00;99619.38;5114593;28;20026;-90
2023/07/16 05:15:54;;;;;;;15.30;3.35;;;;;;;12.31;100.00;99624.50;5114713;28;20023;-89
2023/07/16 05:18:21;;;;;;;17.63;4.05;;;;;;;12.27;100.00;99631.72;5113303;28;20021;-89
2023/07/16 05:20:49;;;;;;;14.20;3.30;;;;;;;12.30;100.00;99631.47;5113489;28;20430;-89
2023/07/16 05:23:15;;;;;;;17.00;2.35;;;;;;;12.40;100.00;99632.38;5114489;28;20488;-89
2023/07/16 05:25:48;;;;;;;20.60;2.85;;;;;;;12.34;100.00;99640.66;5113256;28;20076;-90
2023/07/16 05:28:14;;;;;;;17.48;2.95;;;;;;;12.28;100.00;99643.69;5114745;28;20533;-90
2023/07/16 05:30:39;;;;;;;16.40;2.85;;;;;;;12.42;100.00;99650.41;5114579;28;20107;-89
2023/07/16 05:33:04;;;;;;;16.05;2.97;;;;;;;12.45;100.00;99644.16;5114332;28;20103;-92
2023/07/16 05:35:30;;;;;;;22.27;3.65;;;;;;;12.50;100.00;99642.03;5114270;28;20362;-88
2023/07/16 05:37:55;;;;;;;17.33;2.55;;;;;;;12.57;100.00;99648.38;5113125;28;20031;-89
2023/07/16 05:40:20;;;;;;;15.45;2.58;;;;;;;12.59;100.00;99649.09;5114248;28;20038;-89
2023/07/16 05:42:46;;;;;;;19.77;3.10;;;;;;;12.62;100.00;99657.41;5114209;28;20096;-91
2023/07/16 05:45:11;;;;;;;26.75;3.50;;;;;;;12.57;100.00;99651.78;5114079;28;20475;-90
2023/07/16 05:47:37;;;;;;;17.75;3.58;;;;;;;12.65;100.00;99661.53;5112709;28;20022;-91
2023/07/16 05:50:02;;;;;;;13.85;2.35;;;;;;;12.64;100.00;99660.72;5114150;28;20024;-91
2023/07/16 05:52:28;;;;;;;20.02;3.17;;;;;;;12.51;100.00;99667.81;5113996;28;20026;-91
2023/07/16 05:54:53;;;;;;;14.55;2.78;;;;;;;12.48;100.00;99667.19;5113976;28;20489;-91
2023/07/16 05:57:19;;;;;;;16.30;2.72;;;;;;;12.48;100.00;99669.78;5113860;28;20419;-91
2023/07/16 05:59:44;;;;;;;17.70;3.67;;;;;;;12.59;100.00;99660.25;5113958;28;20058;-91
2023/07/16 06:02:09;;;;;;;19.65;3.15;;;;;;;12.56;100.00;99672.63;5113837;28;20476;-91
2023/07/16 06:04:35;;;;;;;15.38;3.05;;;;;;;12.49;100.00;99674.03;5112367;28;20567;-91
2023/07/16 06:07:00;;;;;;;19.33;3.63;;;;;;;12.51;100.00;99672.97;5112453;28;20024;-91
2023/07/16 06:09:25;;;;;;;17.40;3.00;;;;;;;12.72;100.00;99683.41;5112277;28;20384;-91
2023/07/16 06:11:51;;;;;;;18.13;3.90;;;;;;;13.02;100.00;99680.19;5113529;28;20373;-92
2023/07/16 06:14:16;;;;;;;20.65;4.18;;;;;;;13.37;100.00;99684.31;5113598;28;20561;-91
2023/07/16 06:16:42;;;;;;;23.00;3.70;;;;;;;13.66;100.00;99691.50;5113477;28;20019;-91
2023/07/16 06:19:08;;;;;;;15.60;3.95;;;;;;;15.26;100.00;99696.84;5113415;28;20026;-91
2023/07/16 06:21:33;;;;;;;18.25;2.30;;;;;;;16.35;94.10;99699.16;5113401;28;20028;-91
2023/07/16 06:23:59;;;;;;;17.70;2.85;;;;;;;17.54;83.12;99708.56;5113219;28;20043;-92
2023/07/16 06:26:24;;;;;;;18.52;3.03;;;;;;;16.27;87.31;99713.72;5113355;28;20027;-91
2023/07/16 06:28:49;;;;;;;24.60;3.40;;;;;;;15.41;96.60;99721.50;5113368;28;20020;-91
2023/07/16 06:31:18;;;;;;;9.60;2.15;;;;;;;15.32;99.98;99717.13;5111754;28;20061;-91
2023/07/16 06:33:43;;;;;;;14.95;2.75;;;;;;;14.75;100.00;99718.66;5111935;28;20028;-91
2023/07/16 06:36:09;;;;;;;13.82;2.55;;;;;;;14.95;100.00;99724.75;5113180;28;20024;-91
2023/07/16 06:38:34;;;;;;;18.92;4.15;;;;;;;14.88;100.00;99724.44;5113111;28;20102;-91
2023/07/16 06:41:00;;;;;;;22.63;3.55;;;;;;;14.56;100.00;99735.03;5113076;28;20023;-91
2023/07/16 06:43:25;;;;;;;13.90;2.72;;;;;;;14.57;100.00;99731.47;5112878;28;20072;-91
2023/07/16 06:45:50;;;;;;;20.17;3.20;;;;;;;15.14;100.00;99744.72;5111768;28;20068;-91
2023/07/16 06:48:16;;;;;;;23.98;3.47;;;;;;;14.74;100.00;99749.00;5111719;28;20452;-91
2023/07/16 06:50:42;;;;;;;15.90;3.10;;;;;;;14.64;100.00;99752.53;5113098;28;20024;-91
2023/07/16 06:53:07;;;;;;;19.83;2.90;;;;;;;14.54;100.00;99747.31;5112726;28;20499;-92
2023/07/16 06:55:33;;;;;;;16.25;2.90;;;;;;;14.48;100.00;99748.59;5112822;28;20073;-91
2023/07/16 06:57:58;;;;;;;24.15;4.35;;;;;;;14.40;100.00;99755.41;5112796;28;20434;-91
2023/07/16 07:00:23;;;;;;;14.68;2.72;;;;;;;14.47;100.00;99759.94;5111502;28;20039;-91
2023/07/16 07:02:49;;;;;;;24.95;5.47;;;;;;;14.37;100.00;99771.25;5111395;28;20111;-91
2023/07/16 07:05:14;;;;;;;15.40;2.35;;;;;;;14.89;100.00;99762.47;5111249;28;20114;-91
2023/07/16 07:07:39;;;;;;;16.42;3.22;;;;;;;15.36;99.86;99775.72;5112528;28;20031;-91
2023/07/16 07:10:05;;;;;;;13.75;3.35;;;;;;;15.49;96.62;99785.03;5111427;28;20080;-91
2023/07/16 07:12:37;;;;;;;17.73;2.47;;;;;;;14.90;100.00;99784.91;5112604;28;20560;-91
2023/07/16 07:15:03;;;;;;;12.32;2.33;;;;;;;15.04;100.00;99786.28;5112790;28;20072;-91
2023/07/16 07:17:28;;;;;;;20.25;2.78;;;;;;;14.99;100.00;99781.50;5112401;28;20030;-91
2023/07/16 07:19:54;;;;;;;13.20;3.15;;;;;;;14.78;100.00;99796.34;5112388;28;20027;-91
2023/07/16 07:22:19;;;;;;;14.38;2.50;;;;;;;15.14;100.00;99794.13;5112528;28;20059;-91
2023/07/16 07:24:44;;;;;;;23.77;2.95;;;;;;;15.13;97.18;99800.28;5112678;28;20397;-92
2023/07/16 07:27:10;;;;;;;26.05;2.83;;;;;;;14.96;100.00;99815.53;5112238;28;20412;-91
2023/07/16 07:29:35;;;;;;;13.93;3.03;;;;;;;14.91;100.00;99816.91;5112297;28;20114;-91
2023/07/16 07:32:00;;;;;;;14.20;2.90;;;;;;;14.91;100.00;99827.28;5110970;28;20508;-92
2023/07/16 07:34:26;;;;;;;14.80;2.53;;;;;;;14.72;100.00;99818.44;5112043;28;20473;-92
2023/07/16 07:36:51;;;;;;;14.98;2.75;;;;;;;14.71;100.00;99816.00;5112320;28;20047;-92
2023/07/16 07:39:16;;;;;;;14.40;3.05;;;;;;;14.79;100.00;99810.16;5112132;28;20023;-92
2023/07/16 07:41:42;;;;;;;21.75;3.55;;;;;;;14.84;100.00;99821.78;5112071;28;20024;-92
2023/07/16 07:44:07;;;;;;;14.82;1.90;;;;;;;14.77;100.00;99824.06;5114277;28;20032;-91
2023/07/16 07:46:32;;;;;;;14.85;2.40;;;;;;;14.89;100.00;99830.00;5116747;28;20461;-91
2023/07/16 07:48:58;;;;;;;15.45;2.47;;;;;;;14.93;100.00;99835.78;5116408;28;20590;-92
2023/07/16 07:51:23;;;;;;;7.50;1.73;;;;;;;14.91;100.00;99841.09;5115107;28;20426;-92
2023/07/16 07:53:49;;;;;;;16.80;2.17;;;;;;;14.95;100.00;99839.91;5115012;28;20428;-92
2023/07/16 07:56:14;;;;;;;14.98;2.05;;;;;;;15.05;98.90;99844.31;5116169;28;20365;-92
2023/07/16 07:58:40;;;;;;;14.43;2.47;;;;;;;15.12;97.80;99840.25;5116134;28;20416;-92
2023/07/16 08:01:08;;;;;;;14.77;2.05;;;;;;;15.15;98.96;99845.16;5116152;28;20038;-92
2023/07/16 08:03:35;;;;;;;16.55;2.17;;;;;;;15.10;98.53;99842.13;5116246;28;20024;-92
2023/07/16 08:06:00;;;;;;;11.73;2.28;;;;;;;15.04;98.66;99847.84;5116310;28;20069;-92
2023/07/16 08:08:26;;;;;;;14.13;2.33;;;;;;;15.10;100.00;99848.16;5116082;28;20028;-92
2023/07/16 08:10:51;;;;;;;13.43;2.17;;;;;;;15.12;96.07;99845.44;5115948;28;20413;-92
2023/07/16 08:13:16;;;;;;;13.80;3.13;;;;;;;15.24;95.98;99848.72;5115826;28;20051;-92
2023/07/16 08:15:42;;;;;;;21.00;2.88;;;;;;;15.31;95.36;99849.84;5116116;28;20077;-92
2023/07/16 08:18:07;;;;;;;14.77;2.40;;;;;;;15.48;95.80;99845.78;5115880;28;20468;-92
2023/07/16 08:20:33;;;;;;;12.77;1.92;;;;;;;15.63;95.48;99852.25;5115897;28;20023;-92
2023/07/16 08:22:58;;;;;;;18.83;2.42;;;;;;;15.42;92.27;99852.34;5115526;28;20051;-92
2023/07/16 08:25:23;;;;;;;15.70;3.45;;;;;;;15.68;94.34;99868.28;5115774;28;20053;-92
2023/07/16 08:27:49;;;;;;;10.70;2.35;;;;;;;15.80;90.47;99856.81;5115649;28;20024;-92
2023/07/16 08:30:14;;;;;;;15.43;2.00;;;;;;;16.20;90.30;99858.44;5115606;28;20028;-92
2023/07/16 08:32:40;;;;;;;21.40;2.42;;;;;;;16.85;88.81;99856.00;5114123;28;20070;-92
2023/07/16 08:35:06;;;;;;;12.68;2.13;;;;;;;17.83;81.14;99871.97;5114074;28;20031;-92
2023/07/16 08:37:31;;;;;;;12.07;1.58;;;;;;;18.72;76.20;99876.22;5114072;28;20020;-92
2023/07/16 08:39:57;;;;;;;13.18;2.05;;;;;;;19.17;72.42;99877.81;5115548;28;20047;-92
2023/07/16 08:42:23;;;;;;;14.40;2.58;;;;;;;18.29;71.41;99877.94;5115218;28;20055;-92
2023/07/16 08:44:50;;;;;;;11.65;2.38;;;;;;;17.90;75.60;99875.63;5115121;27;20040;-92
2023/07/16 08:47:16;;;;;;;13.10;2.20;;;;;;;17.67;78.68;99879.59;5113958;28;20065;-92
2023/07/16 08:49:41;;;;;;;10.70;1.60;;;;;;;17.57;78.05;99884.06;5115448;28;20027;-92
2023/07/16 08:52:09;;;;;;;14.00;1.83;;;;;;;17.63;77.98;99883.47;5115276;28;20479;-92
2023/07/16 08:54:34;;;;;;;8.40;1.63;;;;;;;17.52;77.59;99882.72;5115024;28;20016;-92
2023/07/16 08:57:00;;;;;;;10.93;1.63;;;;;;;17.58;78.24;99885.69;5115053;28;20520;-92
2023/07/16 08:59:27;;;;;;;9.50;1.65;;;;;;;17.70;77.72;99894.97;5115282;28;20071;-92
2023/07/16 09:01:53;;;;;;;10.80;2.70;;;;;;;17.96;73.97;99882.84;5114845;28;20068;-92
2023/07/16 09:04:18;;;;;;;11.70;1.75;;;;;;;17.94;76.25;99892.63;5114755;28;20493;-92
2023/07/16 09:06:44;;;;;;;10.85;1.35;;;;;;;17.55;75.93;99895.47;5114837;28;20020;-93
2023/07/16 09:09:20;;;;;;;9.90;1.50;;;;;;;17.66;78.59;99888.41;5115012;28;20031;-92
2023/07/16 09:11:48;;;;;;;12.07;1.92;;;;;;;18.01;75.46;99897.25;5114805;28;20028;-92
2023/07/16 09:14:18;;;;;;;10.35;2.03;;;;;;;17.70;75.84;99890.59;5114781;27;20027;-92
2023/07/16 09:16:48;;;;;;;10.00;1.77;;;;;;;17.94;77.38;99894.41;5114712;28;20366;-92
2023/07/16 09:19:15;;;;;;;6.95;1.70;;;;;;;17.83;76.26;99892.06;5113386;28;20473;-92
2023/07/16 09:21:40;;;;;;;9.52;1.50;;;;;;;18.00;76.91;99899.06;5113286;28;20028;-92
2023/07/16 09:24:08;;;;;;;8.25;2.20;;;;;;;18.46;73.99;99896.31;5114392;28;20054;-92
2023/07/16 09:26:33;;;;;;;11.85;1.92;;;;;;;18.34;74.55;99893.16;5114631;28;20093;-93
2023/07/16 09:28:58;;;;;;;9.18;2.15;;;;;;;18.74;74.04;99905.66;5114561;28;20023;-92
2023/07/16 09:31:24;;;;;;;8.43;1.25;;;;;;;18.60;71.16;99901.00;5114324;28;20403;-92
2023/07/16 09:33:51;;;;;;;6.72;1.55;;;;;;;18.81;73.42;99925.03;5114230;28;20431;-92
2023/07/16 09:36:24;;;;;;;9.13;1.63;;;;;;;18.24;70.39;99914.13;5114349;27;20505;-92
2023/07/16 09:38:49;;;;;;;5.95;1.33;;;;;;;18.03;73.99;99921.44;5113000;28;20027;-90
2023/07/16 09:41:15;;;;;;;4.97;1.30;;;;;;;17.82;76.59;99917.31;5114311;28;20016;-90
2023/07/16 09:43:41;;;;;;;5.38;1.27;;;;;;;17.38;76.04;99914.50;5114031;28;20027;-89
2023/07/16 09:46:06;;;;;;;8.43;1.50;;;;;;;17.57;76.35;99925.81;5114186;28;20032;-89
2023/07/16 09:48:32;;;;;;;7.15;1.33;;;;;;;17.96;76.16;99921.22;5114179;28;20048;-89
2023/07/16 09:50:58;;;;;;;10.73;2.10;;;;;;;17.87;78.19;99927.31;5114174;28;20411;-89
2023/07/16 09:53:24;;;;;;;7.20;1.67;;;;;;;17.58;79.07;99935.28;5113962;28;20477;-92
2023/07/16 09:55:52;;;;;;;6.05;1.30;;;;;;;17.65;77.78;99928.50;5113944;28;20085;-92
2023/07/16 09:58:22;;;;;;;7.82;1.63;;;;;;;17.63;79.29;99927.84;5113992;28;20080;-91
2023/07/16 10:00:48;;;;;;;8.15;1.83;;;;;;;17.74;78.11;99932.88;5113843;28;20107;-92
2023/07/16 10:03:16;;;;;;;3.30;0.80;;;;;;;18.37;76.98;99937.25;5113963;28;20024;-93
2023/07/16 10:05:42;;;;;;;7.15;1.00;;;;;;;18.86;71.98;99944.66;5112070;28;20107;-91
2023/07/16 10:08:17;;;;;;;6.85;0.77;;;;;;;19.24;67.28;99952.09;5112432;28;20106;-92
2023/07/16 10:10:48;;;;;;;5.10;0.75;;;;;;;19.48;67.21;99954.94;5112312;28;20023;-91
2023/07/16 10:13:14;;;;;;;2.83;0.45;;;;;;;19.70;66.69;99959.63;5112322;28;20077;-92
2023/07/16 10:15:50;;;;;;;5.05;0.70;;;;;;;19.87;67.19;99952.66;5113635;28;20481;-92
2023/07/16 10:18:33;;;;;;;4.60;1.02;;;;;;;19.77;68.26;99960.63;5113489;28;20469;-92
2023/07/16 10:21:06;;;;;;;2.60;0.63;;;;;;;19.60;67.96;99967.59;5113453;28;20473;-92
2023/07/16 10:23:43;;;;;;;6.28;1.10;;;;;;;19.90;67.09;99965.44;5112100;28;20023;-92
2023/07/16 10:26:11;;;;;;;6.03;1.00;;;;;;;19.71;66.50;99965.72;5113413;28;20076;-92
2023/07/16 10:28:37;;;;;;;4.68;0.70;;;;;;;19.14;68.16;99971.47;5113251;28;20031;-92
2023/07/16 10:31:03;;;;;;;4.93;0.93;;;;;;;18.66;69.46;99970.16;5113283;28;20023;-92
2023/07/16 10:33:28;;;;;;;3.78;0.70;;;;;;;18.84;67.94;99973.56;5111828;28;20389;-92
2023/07/16 10:35:58;;;;;;;4.75;0.90;;;;;;;19.09;71.74;99977.16;5113010;28;20024;-92
2023/07/16 10:38:23;;;;;;;2.72;0.70;;;;;;;19.28;67.94;99976.13;5113076;28;20027;-92
2023/07/16 10:40:49;;;;;;;5.30;1.15;;;;;;;19.34;66.23;99979.94;5113061;28;20024;-93
2023/07/16 10:43:14;;;;;;;1.50;0.30;;;;;;;19.43;66.87;99971.13;5111580;28;20485;-90
2023/07/16 10:45:40;;;;;;;3.08;0.50;;;;;;;19.40;66.91;99981.91;5111844;28;20519;-90
2023/07/16 10:48:05;;;;;;;0.93;0.35;;;;;;;19.23;66.54;99988.84;5111692;28;20028;-89
2023/07/16 10:50:35;;;;;;;3.58;0.65;;;;;;;19.29;63.93;99988.25;5112886;28;20049;-90
2023/07/16 10:53:01;;;;;;;4.75;0.95;;;;;;;19.38;64.28;99979.44;5112805;28;20027;-90
2023/07/16 10:55:29;;;;;;;2.85;0.70;;;;;;;19.60;65.58;99979.88;5112830;28;20030;-90
2023/07/16 10:57:55;;;;;;;2.38;0.63;;;;;;;19.97;64.97;99984.78;5112715;28;20062;-90
2023/07/16 11:00:22;;;;;;;6.30;0.57;;;;;;;20.01;64.07;99978.22;5112826;28;20085;-90
2023/07/16 11:02:49;;;;;;;4.78;0.85;;;;;;;20.01;62.97;99977.41;5112650;28;20023;-89
2023/07/16 11:05:15;;;;;;;4.88;0.85;;;;;;;19.34;63.46;99965.03;5112613;28;20076;-89
2023/07/16 11:07:45;;;;;;;4.70;1.38;;;;;;;19.89;64.66;99982.13;5112667;28;20035;-89
2023/07/16 11:10:11;;;;;;;5.68;1.02;;;;;;;20.05;66.04;99973.50;5112554;28;20384;-90
2023/07/16 11:12:36;;;;;;;4.65;0.82;;;;;;;19.62;64.62;99977.91;5112508;28;20114;-90
2023/07/16 11:15:02;;;;;;;5.22;0.63;;;;;;;20.12;64.65;99981.50;5112463;28;20097;-89
2023/07/16 11:17:28;;;;;;;6.00;1.05;;;;;;;20.47;63.58;99981.22;5111965;28;20032;-90